N205CW LIEA-LIME
Flight info
| Callsign | N205CW |
|---|---|
| Flight time | 0h 58m |
| Altitude | 18000 |
| Route | MINKA L5 ROMPO/N0461F340 DCT LOMED DCT IPLUB DCT OSBUL |
| Aircraft | C750/M-SBDE3FGHRWXY/S |
Departure
| Time | 2026-05-04 16:22 |
|---|---|
| Airport | Alghero-Fertilia Airport (LIEA) |
Arrival
| Time | 2026-05-04 17:20 |
|---|---|
| Airport | Il Caravaggio International Airport (LIME) |
| Time | Latitude | Longitude | Altitude | Speed | Heading |
|---|---|---|---|---|---|
| 2026-05-04 16:19 | 40.63147 | 8.29422 | 89 ft | 8 kts | 29° |
| 2026-05-04 16:19 | 40.63277 | 8.29481 | 89 ft | 12 kts | 347° |
| 2026-05-04 16:20 | 40.63553 | 8.29530 | 92 ft | 16 kts | 23° |
| 2026-05-04 16:20 | 40.63759 | 8.29645 | 97 ft | 14 kts | 2° |
| 2026-05-04 16:21 | 40.63772 | 8.29413 | 92 ft | 3 kts | 210° |
| 2026-05-04 16:22 | 40.63692 | 8.29366 | 93 ft | 51 kts | 204° |
| 2026-05-04 16:22 | 40.61045 | 8.27894 | 1478 ft | 152 kts | 188° |
| 2026-05-04 16:23 | 40.57453 | 8.27177 | 3235 ft | 202 kts | 193° |
| 2026-05-04 16:24 | 40.51798 | 8.25676 | 6434 ft | 212 kts | 191° |
| 2026-05-04 16:25 | 40.48795 | 8.25783 | 7690 ft | 234 kts | 161° |
| 2026-05-04 16:26 | 40.46153 | 8.34019 | 10238 ft | 293 kts | 107° |
| 2026-05-04 16:26 | 40.45431 | 8.42871 | 11167 ft | 371 kts | 77° |
| 2026-05-04 16:27 | 40.48255 | 8.48752 | 12566 ft | 381 kts | 53° |
| 2026-05-04 16:28 | 40.52698 | 8.57796 | 14507 ft | 399 kts | 57° |
| 2026-05-04 16:28 | 40.57594 | 8.66765 | 16764 ft | 399 kts | 51° |
| 2026-05-04 16:29 | 40.63759 | 8.79364 | 19288 ft | 421 kts | 58° |
| 2026-05-04 16:30 | 40.68612 | 8.89285 | 21123 ft | 438 kts | 58° |
| 2026-05-04 16:31 | 40.71864 | 8.96200 | 22330 ft | 450 kts | 56° |
| 2026-05-04 16:31 | 40.76935 | 9.06842 | 24039 ft | 467 kts | 57° |
| 2026-05-04 16:32 | 40.82107 | 9.17734 | 25792 ft | 472 kts | 56° |
| 2026-05-04 16:33 | 40.85595 | 9.25143 | 26510 ft | 478 kts | 56° |
| 2026-05-04 16:33 | 40.89137 | 9.32647 | 27221 ft | 484 kts | 56° |
| 2026-05-04 16:34 | 40.92714 | 9.40267 | 27899 ft | 491 kts | 56° |
| 2026-05-04 16:34 | 40.94519 | 9.44113 | 28260 ft | 494 kts | 56° |
| 2026-05-04 16:35 | 41.00009 | 9.55847 | 29200 ft | 506 kts | 56° |
| 2026-05-04 16:35 | 41.05627 | 9.67847 | 30136 ft | 515 kts | 53° |
| 2026-05-04 16:36 | 41.07854 | 9.71555 | 30385 ft | 513 kts | 44° |
| 2026-05-04 16:36 | 41.13343 | 9.77461 | 31007 ft | 506 kts | 26° |
| 2026-05-04 16:37 | 41.18595 | 9.80577 | 31758 ft | 491 kts | 11° |
| 2026-05-04 16:37 | 41.21853 | 9.81877 | 32145 ft | 490 kts | 10° |
| 2026-05-04 16:37 | 41.28370 | 9.84521 | 33070 ft | 488 kts | 10° |
| 2026-05-04 16:38 | 41.34726 | 9.87090 | 34041 ft | 470 kts | 9° |
| 2026-05-04 16:39 | 41.44349 | 9.90973 | 34044 ft | 485 kts | 9° |
| 2026-05-04 16:39 | 41.50792 | 9.93588 | 34043 ft | 484 kts | 9° |
| 2026-05-04 16:40 | 41.63648 | 9.98823 | 34062 ft | 480 kts | 9° |
| 2026-05-04 16:41 | 41.79634 | 10.05355 | 34061 ft | 480 kts | 9° |
| 2026-05-04 16:43 | 41.95561 | 10.11903 | 34068 ft | 480 kts | 9° |
| 2026-05-04 16:43 | 42.05142 | 10.15858 | 34064 ft | 480 kts | 9° |
| 2026-05-04 16:45 | 42.24257 | 10.23788 | 34067 ft | 476 kts | 9° |
| 2026-05-04 16:46 | 42.40101 | 10.30395 | 34078 ft | 477 kts | 9° |
| 2026-05-04 16:47 | 42.52785 | 10.35711 | 34077 ft | 477 kts | 9° |
| 2026-05-04 16:48 | 42.65515 | 10.41070 | 34080 ft | 480 kts | 9° |
| 2026-05-04 16:49 | 42.78168 | 10.43503 | 34096 ft | 451 kts | 343° |
| 2026-05-04 16:50 | 42.90869 | 10.42534 | 34087 ft | 458 kts | 348° |
| 2026-05-04 16:51 | 43.00393 | 10.41764 | 34091 ft | 460 kts | 349° |
| 2026-05-04 16:52 | 43.13138 | 10.40922 | 34087 ft | 459 kts | 349° |
| 2026-05-04 16:53 | 43.22708 | 10.40295 | 34088 ft | 458 kts | 349° |
| 2026-05-04 16:54 | 43.35451 | 10.39444 | 34091 ft | 458 kts | 349° |
| 2026-05-04 16:55 | 43.54467 | 10.38163 | 34098 ft | 457 kts | 349° |
| 2026-05-04 16:56 | 43.70349 | 10.37085 | 34106 ft | 457 kts | 350° |
| 2026-05-04 16:57 | 43.79895 | 10.36435 | 34107 ft | 459 kts | 352° |
| 2026-05-04 16:58 | 43.92664 | 10.35563 | 34133 ft | 459 kts | 352° |
| 2026-05-04 17:00 | 44.11873 | 10.34240 | 33619 ft | 466 kts | 352° |
| 2026-05-04 17:00 | 44.21610 | 10.33570 | 31774 ft | 468 kts | 353° |
| 2026-05-04 17:01 | 44.28136 | 10.33117 | 30544 ft | 471 kts | 353° |
| 2026-05-04 17:01 | 44.34623 | 10.32671 | 29271 ft | 461 kts | 353° |
| 2026-05-04 17:02 | 44.40983 | 10.32225 | 28065 ft | 454 kts | 353° |
| 2026-05-04 17:02 | 44.47264 | 10.31788 | 26879 ft | 449 kts | 354° |
| 2026-05-04 17:03 | 44.50373 | 10.31572 | 26292 ft | 446 kts | 354° |
| 2026-05-04 17:03 | 44.53417 | 10.31358 | 25715 ft | 442 kts | 354° |
| 2026-05-04 17:03 | 44.59529 | 10.30929 | 24502 ft | 437 kts | 354° |
| 2026-05-04 17:04 | 44.65554 | 10.30508 | 23297 ft | 424 kts | 355° |
| 2026-05-04 17:04 | 44.71141 | 10.30121 | 22260 ft | 381 kts | 354° |
| 2026-05-04 17:05 | 44.76203 | 10.29760 | 21316 ft | 350 kts | 354° |
| 2026-05-04 17:05 | 44.80983 | 10.29422 | 20422 ft | 341 kts | 354° |
| 2026-05-04 17:06 | 44.85671 | 10.28633 | 19529 ft | 340 kts | 349° |
| 2026-05-04 17:06 | 44.88014 | 10.28199 | 19082 ft | 340 kts | 349° |
| 2026-05-04 17:07 | 44.92680 | 10.27294 | 18169 ft | 336 kts | 349° |
| 2026-05-04 17:07 | 44.94214 | 10.26988 | 17860 ft | 333 kts | 349° |
| 2026-05-04 17:07 | 44.97265 | 10.26391 | 17277 ft | 329 kts | 349° |
| 2026-05-04 17:07 | 44.99501 | 10.25955 | 16854 ft | 328 kts | 349° |
| 2026-05-04 17:08 | 45.01747 | 10.25513 | 16444 ft | 326 kts | 349° |
| 2026-05-04 17:08 | 45.06228 | 10.24632 | 15583 ft | 324 kts | 350° |
| 2026-05-04 17:08 | 45.08454 | 10.24194 | 15153 ft | 322 kts | 350° |
| 2026-05-04 17:09 | 45.10670 | 10.23758 | 14729 ft | 321 kts | 350° |
| 2026-05-04 17:09 | 45.12881 | 10.23322 | 14304 ft | 320 kts | 350° |
| 2026-05-04 17:09 | 45.15086 | 10.22887 | 13880 ft | 320 kts | 350° |
| 2026-05-04 17:10 | 45.19474 | 10.22079 | 13002 ft | 316 kts | 352° |
| 2026-05-04 17:10 | 45.25982 | 10.20899 | 11747 ft | 313 kts | 351° |
| 2026-05-04 17:11 | 45.28134 | 10.20508 | 11336 ft | 311 kts | 352° |
| 2026-05-04 17:11 | 45.30280 | 10.20118 | 10926 ft | 309 kts | 352° |
| 2026-05-04 17:11 | 45.34522 | 10.19344 | 10117 ft | 306 kts | 352° |
| 2026-05-04 17:12 | 45.36626 | 10.18960 | 9693 ft | 304 kts | 352° |
| 2026-05-04 17:12 | 45.40778 | 10.18199 | 8887 ft | 298 kts | 352° |
| 2026-05-04 17:13 | 45.46890 | 10.17075 | 7723 ft | 293 kts | 352° |
| 2026-05-04 17:14 | 45.52718 | 10.15231 | 6503 ft | 286 kts | 323° |
| 2026-05-04 17:14 | 45.54078 | 10.13209 | 6179 ft | 279 kts | 309° |
| 2026-05-04 17:14 | 45.56511 | 10.08845 | 5458 ft | 281 kts | 308° |
| 2026-05-04 17:15 | 45.57732 | 10.06710 | 5090 ft | 275 kts | 308° |
| 2026-05-04 17:15 | 45.60088 | 10.02575 | 4692 ft | 267 kts | 308° |
| 2026-05-04 17:16 | 45.61775 | 9.98042 | 4225 ft | 248 kts | 283° |
| 2026-05-04 17:16 | 45.62871 | 9.91837 | 3515 ft | 190 kts | 284° |
| 2026-05-04 17:17 | 45.63198 | 9.90077 | 3270 ft | 178 kts | 284° |
| 2026-05-04 17:17 | 45.64101 | 9.85204 | 2594 ft | 151 kts | 284° |
| 2026-05-04 17:18 | 45.64368 | 9.83762 | 2407 ft | 153 kts | 284° |
| 2026-05-04 17:18 | 45.64922 | 9.80766 | 1976 ft | 148 kts | 284° |
| 2026-05-04 17:19 | 45.65408 | 9.78147 | 1612 ft | 129 kts | 284° |
| 2026-05-04 17:19 | 45.65846 | 9.75697 | 1281 ft | 127 kts | 283° |
| 2026-05-04 17:20 | 45.66297 | 9.73306 | 922 ft | 121 kts | 285° |
| 2026-05-04 17:20 | 45.66698 | 9.71160 | 784 ft | 92 kts | 284° |
| 2026-05-04 17:20 | 45.66810 | 9.70553 | 784 ft | 44 kts | 285° |
| 2026-05-04 17:21 | 45.66929 | 9.70014 | 784 ft | 15 kts | 314° |
| 2026-05-04 17:21 | 45.67082 | 9.69887 | 784 ft | 6 kts | 333° |
| 2026-05-04 17:22 | 45.67110 | 9.69905 | 784 ft | 4 kts | 68° |
| 2026-05-04 17:22 | 45.67103 | 9.69959 | 784 ft | 10 kts | 100° |